sensor_id;sensor_type;location;lat;lon;timestamp;pressure;altitude;pressure_sealevel;temperature;humidity
61014;BME280;46899;47.542;19.082;2023-04-27T00:00:31;100631.19;;;4.40;80.42
61014;BME280;46899;47.542;19.082;2023-04-27T00:03:34;100633.75;;;4.44;79.72
61014;BME280;46899;47.542;19.082;2023-04-27T00:06:37;100632.03;;;4.39;79.90
61014;BME280;46899;47.542;19.082;2023-04-27T00:09:40;100638.94;;;4.37;79.65
61014;BME280;46899;47.542;19.082;2023-04-27T00:12:42;100636.41;;;4.31;79.88
61014;BME280;46899;47.542;19.082;2023-04-27T00:15:45;100640.72;;;4.26;79.85
61014;BME280;46899;47.542;19.082;2023-04-27T00:18:47;100643.28;;;4.26;79.77
61014;BME280;46899;47.542;19.082;2023-04-27T00:21:50;100649.28;;;4.31;79.88
61014;BME280;46899;47.542;19.082;2023-04-27T00:24:52;100646.59;;;4.46;79.12
61014;BME280;46899;47.542;19.082;2023-04-27T00:27:55;100650.81;;;4.57;79.40
61014;BME280;46899;47.542;19.082;2023-04-27T00:30:58;100643.87;;;4.70;77.98
61014;BME280;46899;47.542;19.082;2023-04-27T00:34:01;100638.50;;;4.97;75.70
61014;BME280;46899;47.542;19.082;2023-04-27T00:37:04;100634.94;;;5.15;74.86
61014;BME280;46899;47.542;19.082;2023-04-27T00:40:07;100634.06;;;5.20;72.76
61014;BME280;46899;47.542;19.082;2023-04-27T00:43:09;100639.25;;;5.16;73.60
61014;BME280;46899;47.542;19.082;2023-04-27T00:46:12;100642.66;;;5.19;72.52
61014;BME280;46899;47.542;19.082;2023-04-27T00:49:15;100645.31;;;5.10;72.56
61014;BME280;46899;47.542;19.082;2023-04-27T00:52:24;100644.47;;;5.08;73.17
61014;BME280;46899;47.542;19.082;2023-04-27T00:55:27;100644.56;;;4.95;73.89
61014;BME280;46899;47.542;19.082;2023-04-27T00:58:29;100650.63;;;4.86;74.12
61014;BME280;46899;47.542;19.082;2023-04-27T01:01:32;100648.06;;;4.83;74.08
61014;BME280;46899;47.542;19.082;2023-04-27T01:04:35;100640.34;;;4.84;74.24
61014;BME280;46899;47.542;19.082;2023-04-27T01:07:38;100635.16;;;4.92;74.39
61014;BME280;46899;47.542;19.082;2023-04-27T01:10:41;100642.03;;;4.89;74.52
61014;BME280;46899;47.542;19.082;2023-04-27T01:13:44;100642.12;;;4.78;74.44
61014;BME280;46899;47.542;19.082;2023-04-27T01:16:47;100642.97;;;4.77;74.68
61014;BME280;46899;47.542;19.082;2023-04-27T01:19:50;100638.62;;;4.87;73.92
61014;BME280;46899;47.542;19.082;2023-04-27T01:22:53;100643.78;;;4.80;73.62
61014;BME280;46899;47.542;19.082;2023-04-27T01:25:56;100646.41;;;4.76;74.42
61014;BME280;46899;47.542;19.082;2023-04-27T01:28:58;100648.13;;;4.77;74.36
61014;BME280;46899;47.542;19.082;2023-04-27T01:32:01;100645.56;;;4.77;74.64
61014;BME280;46899;47.542;19.082;2023-04-27T01:35:04;100655.03;;;4.69;75.16
61014;BME280;46899;47.542;19.082;2023-04-27T01:38:07;100655.97;;;4.60;75.64
61014;BME280;46899;47.542;19.082;2023-04-27T01:41:09;100650.87;;;4.50;76.71
61014;BME280;46899;47.542;19.082;2023-04-27T01:44:12;100656.06;;;4.44;77.19
61014;BME280;46899;47.542;19.082;2023-04-27T01:47:15;100649.22;;;4.40;78.03
61014;BME280;46899;47.542;19.082;2023-04-27T01:50:18;100649.22;;;4.38;78.20
61014;BME280;46899;47.542;19.082;2023-04-27T01:53:21;100650.13;;;4.27;79.03
61014;BME280;46899;47.542;19.082;2023-04-27T01:56:23;100657.03;;;4.20;79.11
61014;BME280;46899;47.542;19.082;2023-04-27T01:59:27;100661.34;;;4.18;79.66
61014;BME280;46899;47.542;19.082;2023-04-27T02:02:29;100664.75;;;4.22;78.91
61014;BME280;46899;47.542;19.082;2023-04-27T02:05:32;100663.87;;;4.23;79.20
61014;BME280;46899;47.542;19.082;2023-04-27T02:08:35;100669.88;;;4.25;80.18
61014;BME280;46899;47.542;19.082;2023-04-27T02:11:37;100665.66;;;4.13;80.46
61014;BME280;46899;47.542;19.082;2023-04-27T02:14:40;100667.37;;;4.08;80.63
61014;BME280;46899;47.542;19.082;2023-04-27T02:17:42;100672.56;;;3.97;80.97
61014;BME280;46899;47.542;19.082;2023-04-27T02:20:47;100678.59;;;3.84;82.32
61014;BME280;46899;47.542;19.082;2023-04-27T02:23:49;100684.66;;;3.71;83.06
61014;BME280;46899;47.542;19.082;2023-04-27T02:26:52;100682.94;;;3.61;84.42
61014;BME280;46899;47.542;19.082;2023-04-27T02:29:54;100688.09;;;3.57;84.97
61014;BME280;46899;47.542;19.082;2023-04-27T02:33:00;100677.81;;;3.49;85.67
61014;BME280;46899;47.542;19.082;2023-04-27T02:36:06;100682.97;;;3.52;85.97
61014;BME280;46899;47.542;19.082;2023-04-27T02:39:08;100682.94;;;3.64;85.85
61014;BME280;46899;47.542;19.082;2023-04-27T02:42:12;100694.97;;;3.62;85.82
61014;BME280;46899;47.542;19.082;2023-04-27T02:45:16;100692.41;;;3.49;86.66
61014;BME280;46899;47.542;19.082;2023-04-27T02:48:19;100694.13;;;3.40;89.02
61014;BME280;46899;47.542;19.082;2023-04-27T02:51:22;100691.53;;;3.34;89.69
61014;BME280;46899;47.542;19.082;2023-04-27T02:54:25;100702.69;;;3.33;91.06
61014;BME280;46899;47.542;19.082;2023-04-27T02:57:27;100704.41;;;3.21;92.18
61014;BME280;46899;47.542;19.082;2023-04-27T03:00:30;100707.84;;;3.15;95.87
61014;BME280;46899;47.542;19.082;2023-04-27T03:03:32;100707.81;;;3.08;98.06
61014;BME280;46899;47.542;19.082;2023-04-27T03:06:35;100713.81;;;3.02;100.00
61014;BME280;46899;47.542;19.082;2023-04-27T03:09:37;100713.81;;;3.10;100.00
61014;BME280;46899;47.542;19.082;2023-04-27T03:12:40;100715.53;;;3.14;100.00
61014;BME280;46899;47.542;19.082;2023-04-27T03:15:42;100711.25;;;3.04;100.00
61014;BME280;46899;47.542;19.082;2023-04-27T03:18:48;100718.13;;;3.21;100.00
61014;BME280;46899;47.542;19.082;2023-04-27T03:21:50;100717.25;;;3.10;100.00
61014;BME280;46899;47.542;19.082;2023-04-27T03:24:54;100724.09;;;3.07;100.00
61014;BME280;46899;47.542;19.082;2023-04-27T03:27:56;100718.94;;;2.98;100.00
61014;BME280;46899;47.542;19.082;2023-04-27T03:30:59;100717.22;;;3.00;100.00
61014;BME280;46899;47.542;19.082;2023-04-27T03:34:02;100724.09;;;2.98;100.00
61014;BME280;46899;47.542;19.082;2023-04-27T03:37:05;100725.78;;;2.96;100.00
61014;BME280;46899;47.542;19.082;2023-04-27T03:40:11;100733.53;;;3.05;100.00
61014;BME280;46899;47.542;19.082;2023-04-27T03:43:14;100731.81;;;3.01;98.96
61014;BME280;46899;47.542;19.082;2023-04-27T03:46:16;100736.94;;;2.96;97.77
61014;BME280;46899;47.542;19.082;2023-04-27T03:49:19;100744.63;;;2.95;97.66
61014;BME280;46899;47.542;19.082;2023-04-27T03:52:22;100741.22;;;2.97;97.54
61014;BME280;46899;47.542;19.082;2023-04-27T03:55:25;100744.63;;;2.93;97.47
61014;BME280;46899;47.542;19.082;2023-04-27T03:58:27;100746.34;;;2.93;97.12
61014;BME280;46899;47.542;19.082;2023-04-27T04:01:36;100757.50;;;2.92;96.70
61014;BME280;46899;47.542;19.082;2023-04-27T04:04:38;100757.47;;;2.95;96.71
61014;BME280;46899;47.542;19.082;2023-04-27T04:07:42;100754.09;;;2.99;96.22
61014;BME280;46899;47.542;19.082;2023-04-27T04:10:45;100750.66;;;3.04;95.85
61014;BME280;46899;47.542;19.082;2023-04-27T04:13:48;100760.94;;;3.13;95.49
61014;BME280;46899;47.542;19.082;2023-04-27T04:17:01;100761.81;;;3.26;95.36
61014;BME280;46899;47.542;19.082;2023-04-27T04:20:04;100770.41;;;3.35;94.91
61014;BME280;46899;47.542;19.082;2023-04-27T04:23:12;100779.87;;;3.53;95.22
61014;BME280;46899;47.542;19.082;2023-04-27T04:26:15;100778.12;;;3.70;95.32
61014;BME280;46899;47.542;19.082;2023-04-27T04:29:18;100775.53;;;3.79;95.45
61014;BME280;46899;47.542;19.082;2023-04-27T04:32:20;100778.97;;;3.87;95.48
61014;BME280;46899;47.542;19.082;2023-04-27T04:35:24;100777.28;;;3.91;96.06
61014;BME280;46899;47.542;19.082;2023-04-27T04:38:26;100781.56;;;3.98;96.00
61014;BME280;46899;47.542;19.082;2023-04-27T04:41:30;100784.09;;;4.11;95.13
61014;BME280;46899;47.542;19.082;2023-04-27T04:44:32;100783.22;;;4.23;94.29
61014;BME280;46899;47.542;19.082;2023-04-27T04:47:36;100787.47;;;4.30;93.92
61014;BME280;46899;47.542;19.082;2023-04-27T04:50:41;100787.47;;;4.42;92.86
61014;BME280;46899;47.542;19.082;2023-04-27T04:53:44;100784.81;;;4.56;90.37
61014;BME280;46899;47.542;19.082;2023-04-27T04:56:46;100793.31;;;4.79;89.03
61014;BME280;46899;47.542;19.082;2023-04-27T04:59:49;100785.53;;;4.88;88.60
61014;BME280;46899;47.542;19.082;2023-04-27T05:02:51;100789.81;;;4.97;88.60
61014;BME280;46899;47.542;19.082;2023-04-27T05:05:54;100787.97;;;5.17;87.57
61014;BME280;46899;47.542;19.082;2023-04-27T05:08:57;100793.88;;;5.32;85.06
61014;BME280;46899;47.542;19.082;2023-04-27T05:12:00;100796.37;;;5.46;83.90
61014;BME280;46899;47.542;19.082;2023-04-27T05:15:03;100799.66;;;5.63;82.60
61014;BME280;46899;47.542;19.082;2023-04-27T05:18:06;100802.09;;;5.80;81.38
61014;BME280;46899;47.542;19.082;2023-04-27T05:21:15;100802.87;;;5.94;79.59
61014;BME280;46899;47.542;19.082;2023-04-27T05:24:18;100812.16;;;6.13;78.96
61014;BME280;46899;47.542;19.082;2023-04-27T05:27:20;100812.87;;;6.30;78.08
61014;BME280;46899;47.542;19.082;2023-04-27T05:30:23;100819.63;;;6.45;78.25
61014;BME280;46899;47.542;19.082;2023-04-27T05:33:26;100814.25;;;6.60;77.34
61014;BME280;46899;47.542;19.082;2023-04-27T05:36:28;100818.47;;;6.68;76.61
61014;BME280;46899;47.542;19.082;2023-04-27T05:39:31;100817.47;;;6.78;76.66
61014;BME280;46899;47.542;19.082;2023-04-27T05:42:34;100821.53;;;7.01;75.20
61014;BME280;46899;47.542;19.082;2023-04-27T05:45:39;100823.06;;;7.14;73.67
61014;BME280;46899;47.542;19.082;2023-04-27T05:48:43;100825.47;;;7.27;72.61
61014;BME280;46899;47.542;19.082;2023-04-27T05:51:45;100830.47;;;7.41;70.99
61014;BME280;46899;47.542;19.082;2023-04-27T05:54:48;100831.00;;;7.63;69.53
61014;BME280;46899;47.542;19.082;2023-04-27T05:57:51;100831.44;;;7.89;67.95
61014;BME280;46899;47.542;19.082;2023-04-27T06:01:08;100843.72;;;8.30;65.95
61014;BME280;46899;47.542;19.082;2023-04-27T06:04:11;100838.69;;;9.49;60.63
61014;BME280;46899;47.542;19.082;2023-04-27T06:07:14;100835.22;;;10.83;54.40
61014;BME280;46899;47.542;19.082;2023-04-27T06:10:17;100847.69;;;11.88;51.95
61014;BME280;46899;47.542;19.082;2023-04-27T06:13:20;100834.22;;;12.52;49.44
61014;BME280;46899;47.542;19.082;2023-04-27T06:16:23;100833.28;;;12.78;48.13
61014;BME280;46899;47.542;19.082;2023-04-27T06:19:25;100841.47;;;12.92;44.92
61014;BME280;46899;47.542;19.082;2023-04-27T06:22:28;100849.28;;;12.92;45.68
61014;BME280;46899;47.542;19.082;2023-04-27T06:25:30;100840.41;;;13.21;45.76
61014;BME280;46899;47.542;19.082;2023-04-27T06:28:33;100844.44;;;13.06;44.29
61014;BME280;46899;47.542;19.082;2023-04-27T06:31:36;100846.75;;;13.37;42.24
61014;BME280;46899;47.542;19.082;2023-04-27T06:34:38;100851.34;;;13.53;41.93
61014;BME280;46899;47.542;19.082;2023-04-27T06:37:40;100851.22;;;14.20;40.46
61014;BME280;46899;47.542;19.082;2023-04-27T06:40:44;100854.50;;;14.65;39.11
61014;BME280;46899;47.542;19.082;2023-04-27T06:43:46;100857.81;;;15.65;36.90
61014;BME280;46899;47.542;19.082;2023-04-27T06:46:49;100851.66;;;17.51;32.62
61014;BME280;46899;47.542;19.082;2023-04-27T06:49:52;100857.66;;;19.16;29.71
61014;BME280;46899;47.542;19.082;2023-04-27T06:52:55;100855.16;;;22.20;25.77
61014;BME280;46899;47.542;19.082;2023-04-27T06:55:57;100854.13;;;24.73;21.79
61014;BME280;46899;47.542;19.082;2023-04-27T06:59:00;100848.72;;;25.44;21.05
61014;BME280;46899;47.542;19.082;2023-04-27T07:02:03;100859.53;;;26.21;20.47
61014;BME280;46899;47.542;19.082;2023-04-27T07:05:05;100859.38;;;23.79;21.06
61014;BME280;46899;47.542;19.082;2023-04-27T07:08:08;100863.53;;;20.80;24.75
61014;BME280;46899;47.542;19.082;2023-04-27T07:11:11;100859.53;;;20.87;24.49
61014;BME280;46899;47.542;19.082;2023-04-27T07:14:13;100861.78;;;21.91;23.46
61014;BME280;46899;47.542;19.082;2023-04-27T07:17:16;100873.56;;;24.00;20.84
61014;BME280;46899;47.542;19.082;2023-04-27T07:20:18;100861.31;;;27.69;17.50
61014;BME280;46899;47.542;19.082;2023-04-27T07:23:21;100863.00;;;30.01;15.20
61014;BME280;46899;47.542;19.082;2023-04-27T07:26:24;100865.22;;;30.14;15.08
61014;BME280;46899;47.542;19.082;2023-04-27T07:29:28;100859.31;;;30.83;14.83
61014;BME280;46899;47.542;19.082;2023-04-27T07:32:32;100877.25;;;32.15;13.00
61014;BME280;46899;47.542;19.082;2023-04-27T07:35:35;100868.88;;;30.93;13.76
61014;BME280;46899;47.542;19.082;2023-04-27T07:38:38;100877.00;;;31.32;13.91
61014;BME280;46899;47.542;19.082;2023-04-27T07:41:41;100881.37;;;31.72;13.36
61014;BME280;46899;47.542;19.082;2023-04-27T07:44:44;100869.66;;;31.65;13.13
61014;BME280;46899;47.542;19.082;2023-04-27T07:47:46;100874.47;;;30.52;13.89
61014;BME280;46899;47.542;19.082;2023-04-27T07:50:49;100868.50;;;31.04;13.06
61014;BME280;46899;47.542;19.082;2023-04-27T07:53:53;100868.75;;;31.72;12.51
61014;BME280;46899;47.542;19.082;2023-04-27T07:56:56;100864.50;;;31.78;12.39
61014;BME280;46899;47.542;19.082;2023-04-27T07:59:59;100867.87;;;27.57;14.63
61014;BME280;46899;47.542;19.082;2023-04-27T08:03:13;100868.41;;;24.51;17.78
61014;BME280;46899;47.542;19.082;2023-04-27T08:06:17;100855.28;;;22.18;20.28
61014;BME280;46899;47.542;19.082;2023-04-27T08:09:20;100854.88;;;21.03;21.41
61014;BME280;46899;47.542;19.082;2023-04-27T08:12:23;100858.09;;;18.66;23.09
61014;BME280;46899;47.542;19.082;2023-04-27T08:15:25;100856.47;;;20.80;21.69
61014;BME280;46899;47.542;19.082;2023-04-27T08:18:28;100850.50;;;20.26;22.04
61014;BME280;46899;47.542;19.082;2023-04-27T08:21:31;100852.66;;;19.11;22.79
61014;BME280;46899;47.542;19.082;2023-04-27T08:24:34;100848.72;;;21.15;21.33
61014;BME280;46899;47.542;19.082;2023-04-27T08:27:37;100857.81;;;24.19;18.75
61014;BME280;46899;47.542;19.082;2023-04-27T08:30:41;100861.72;;;27.74;15.32
61014;BME280;46899;47.542;19.082;2023-04-27T08:33:44;100865.66;;;25.73;16.33
61014;BME280;46899;47.542;19.082;2023-04-27T08:36:46;100858.09;;;22.28;19.32
61014;BME280;46899;47.542;19.082;2023-04-27T08:39:49;100864.53;;;20.00;21.61
61014;BME280;46899;47.542;19.082;2023-04-27T08:42:56;100851.41;;;20.65;21.54
61014;BME280;46899;47.542;19.082;2023-04-27T08:45:58;100853.41;;;19.42;23.47
61014;BME280;46899;47.542;19.082;2023-04-27T08:49:02;100856.97;;;19.27;23.05
61014;BME280;46899;47.542;19.082;2023-04-27T08:52:09;100858.31;;;18.77;24.33
61014;BME280;46899;47.542;19.082;2023-04-27T08:55:13;100848.81;;;19.72;23.53
61014;BME280;46899;47.542;19.082;2023-04-27T08:58:20;100854.47;;;18.83;24.39
61014;BME280;46899;47.542;19.082;2023-04-27T09:01:23;100844.50;;;17.85;25.56
61014;BME280;46899;47.542;19.082;2023-04-27T09:04:37;100844.34;;;17.08;26.77
61014;BME280;46899;47.542;19.082;2023-04-27T09:07:40;100845.00;;;16.96;26.66
61014;BME280;46899;47.542;19.082;2023-04-27T09:10:43;100839.75;;;16.63;26.63
61014;BME280;46899;47.542;19.082;2023-04-27T09:13:46;100845.16;;;16.09;27.62
61014;BME280;46899;47.542;19.082;2023-04-27T09:16:55;100839.06;;;16.60;27.55
61014;BME280;46899;47.542;19.082;2023-04-27T09:20:08;100842.19;;;16.83;27.06
61014;BME280;46899;47.542;19.082;2023-04-27T09:23:24;100840.13;;;16.73;27.49
61014;BME280;46899;47.542;19.082;2023-04-27T09:26:28;100837.69;;;16.70;27.38
61014;BME280;46899;47.542;19.082;2023-04-27T09:29:33;100835.94;;;16.86;26.74
61014;BME280;46899;47.542;19.082;2023-04-27T09:32:36;100830.91;;;17.14;28.09
61014;BME280;46899;47.542;19.082;2023-04-27T09:35:39;100838.25;;;16.75;27.24
61014;BME280;46899;47.542;19.082;2023-04-27T09:38:43;100834.94;;;17.20;26.74
61014;BME280;46899;47.542;19.082;2023-04-27T09:41:46;100829.63;;;17.21;26.35
61014;BME280;46899;47.542;19.082;2023-04-27T09:44:51;100824.94;;;16.95;26.71
61014;BME280;46899;47.542;19.082;2023-04-27T09:47:54;100820.53;;;17.11;27.02
61014;BME280;46899;47.542;19.082;2023-04-27T09:50:57;100821.81;;;17.20;27.21
61014;BME280;46899;47.542;19.082;2023-04-27T09:54:00;100817.50;;;17.19;27.00
61014;BME280;46899;47.542;19.082;2023-04-27T10:03:47;100807.78;;;16.88;26.61
61014;BME280;46899;47.542;19.082;2023-04-27T10:10:00;100798.94;;;16.89;26.50
61014;BME280;46899;47.542;19.082;2023-04-27T10:13:03;100795.78;;;17.31;25.65
61014;BME280;46899;47.542;19.082;2023-04-27T10:16:14;100799.31;;;17.45;25.96
61014;BME280;46899;47.542;19.082;2023-04-27T10:19:18;100791.34;;;18.08;26.72
61014;BME280;46899;47.542;19.082;2023-04-27T10:22:22;100793.25;;;18.20;26.21
61014;BME280;46899;47.542;19.082;2023-04-27T10:25:28;100790.91;;;18.15;25.57
61014;BME280;46899;47.542;19.082;2023-04-27T10:28:37;100793.72;;;18.26;25.78
61014;BME280;46899;47.542;19.082;2023-04-27T10:31:42;100791.78;;;18.30;25.20
61014;BME280;46899;47.542;19.082;2023-04-27T10:34:45;100794.31;;;17.25;26.27
61014;BME280;46899;47.542;19.082;2023-04-27T10:37:49;100790.34;;;17.02;27.24
61014;BME280;46899;47.542;19.082;2023-04-27T10:40:57;100786.94;;;17.47;26.37
61014;BME280;46899;47.542;19.082;2023-04-27T10:44:12;100785.56;;;17.87;26.17
61014;BME280;46899;47.542;19.082;2023-04-27T10:47:15;100789.13;;;16.77;27.17
61014;BME280;46899;47.542;19.082;2023-04-27T10:50:20;100793.19;;;15.98;28.76
61014;BME280;46899;47.542;19.082;2023-04-27T10:53:23;100798.81;;;15.91;29.24
61014;BME280;46899;47.542;19.082;2023-04-27T10:56:26;100785.16;;;16.18;28.13
61014;BME280;46899;47.542;19.082;2023-04-27T10:59:29;100780.78;;;16.69;27.28
61014;BME280;46899;47.542;19.082;2023-04-27T11:02:32;100787.81;;;17.17;27.41
61014;BME280;46899;47.542;19.082;2023-04-27T11:05:35;100786.09;;;17.47;27.10
61014;BME280;46899;47.542;19.082;2023-04-27T11:08:43;100785.87;;;17.81;26.62
61014;BME280;46899;47.542;19.082;2023-04-27T11:11:47;100775.63;;;18.06;25.66
61014;BME280;46899;47.542;19.082;2023-04-27T11:14:49;100784.53;;;18.33;25.19
61014;BME280;46899;47.542;19.082;2023-04-27T11:18:02;100769.91;;;17.84;25.73
61014;BME280;46899;47.542;19.082;2023-04-27T11:24:08;100765.41;;;18.16;25.39
61014;BME280;46899;47.542;19.082;2023-04-27T11:27:13;100769.16;;;18.56;24.92
61014;BME280;46899;47.542;19.082;2023-04-27T11:30:19;100771.41;;;17.58;25.90
61014;BME280;46899;47.542;19.082;2023-04-27T11:33:22;100776.97;;;17.84;25.33
61014;BME280;46899;47.542;19.082;2023-04-27T11:36:25;100772.19;;;18.34;25.63
61014;BME280;46899;47.542;19.082;2023-04-27T11:39:35;100774.06;;;17.58;26.35
61014;BME280;46899;47.542;19.082;2023-04-27T11:42:38;100776.66;;;16.80;27.61
61014;BME280;46899;47.542;19.082;2023-04-27T11:45:44;100770.41;;;16.66;27.75
61014;BME280;46899;47.542;19.082;2023-04-27T11:48:47;100768.34;;;16.88;27.32
61014;BME280;46899;47.542;19.082;2023-04-27T11:51:50;100768.47;;;17.33;26.18
61014;BME280;46899;47.542;19.082;2023-04-27T11:54:53;100773.13;;;17.89;25.88
61014;BME280;46899;47.542;19.082;2023-04-27T11:57:57;100765.22;;;17.59;25.51
61014;BME280;46899;47.542;19.082;2023-04-27T12:01:01;100762.72;;;18.02;25.55
61014;BME280;46899;47.542;19.082;2023-04-27T12:04:05;100757.59;;;18.42;25.51
61014;BME280;46899;47.542;19.082;2023-04-27T12:07:08;100769.03;;;18.71;25.38
61014;BME280;46899;47.542;19.082;2023-04-27T12:10:11;100758.16;;;18.19;26.55
61014;BME280;46899;47.542;19.082;2023-04-27T12:13:14;100759.75;;;18.22;26.47
61014;BME280;46899;47.542;19.082;2023-04-27T12:16:17;100755.00;;;17.99;27.20
61014;BME280;46899;47.542;19.082;2023-04-27T12:19:20;100748.66;;;18.17;27.38
61014;BME280;46899;47.542;19.082;2023-04-27T12:22:25;100762.94;;;17.83;26.95
61014;BME280;46899;47.542;19.082;2023-04-27T12:25:28;100760.88;;;16.96;27.44
61014;BME280;46899;47.542;19.082;2023-04-27T12:28:30;100754.00;;;16.78;27.73
61014;BME280;46899;47.542;19.082;2023-04-27T12:31:34;100764.72;;;17.06;27.66
61014;BME280;46899;47.542;19.082;2023-04-27T12:34:37;100759.44;;;17.53;26.80
61014;BME280;46899;47.542;19.082;2023-04-27T12:37:40;100755.19;;;17.96;26.74
61014;BME280;46899;47.542;19.082;2023-04-27T12:40:43;100752.09;;;18.47;26.17
61014;BME280;46899;47.542;19.082;2023-04-27T12:43:46;100755.59;;;18.04;25.82
61014;BME280;46899;47.542;19.082;2023-04-27T12:46:50;100756.09;;;17.95;26.49
61014;BME280;46899;47.542;19.082;2023-04-27T12:49:53;100754.47;;;18.08;26.11
61014;BME280;46899;47.542;19.082;2023-04-27T12:52:56;100754.59;;;18.34;26.27
61014;BME280;46899;47.542;19.082;2023-04-27T12:55:58;100753.47;;;17.95;26.49
61014;BME280;46899;47.542;19.082;2023-04-27T12:59:03;100753.50;;;17.65;26.46
61014;BME280;46899;47.542;19.082;2023-04-27T13:02:07;100751.31;;;17.87;26.93
61014;BME280;46899;47.542;19.082;2023-04-27T13:05:11;100748.16;;;17.81;27.21
61014;BME280;46899;47.542;19.082;2023-04-27T13:08:14;100757.94;;;17.78;26.57
61014;BME280;46899;47.542;19.082;2023-04-27T13:11:17;100741.63;;;17.42;26.59
61014;BME280;46899;47.542;19.082;2023-04-27T13:14:19;100747.06;;;17.39;26.96
61014;BME280;46899;47.542;19.082;2023-04-27T13:17:22;100750.09;;;17.32;27.34
61014;BME280;46899;47.542;19.082;2023-04-27T13:20:24;100741.13;;;17.51;27.37
61014;BME280;46899;47.542;19.082;2023-04-27T13:23:27;100743.22;;;17.60;27.70
61014;BME280;46899;47.542;19.082;2023-04-27T13:26:31;100748.06;;;17.37;27.08
61014;BME280;46899;47.542;19.082;2023-04-27T13:29:33;100746.03;;;17.10;27.61
61014;BME280;46899;47.542;19.082;2023-04-27T13:32:36;100741.22;;;17.03;27.29
61014;BME280;46899;47.542;19.082;2023-04-27T13:35:39;100739.31;;;17.36;27.49
61014;BME280;46899;47.542;19.082;2023-04-27T13:38:41;100739.69;;;16.99;27.34
61014;BME280;46899;47.542;19.082;2023-04-27T13:41:44;100748.38;;;16.68;28.59
61014;BME280;46899;47.542;19.082;2023-04-27T13:44:47;100747.56;;;16.51;28.24
61014;BME280;46899;47.542;19.082;2023-04-27T13:47:50;100740.81;;;16.29;28.79
61014;BME280;46899;47.542;19.082;2023-04-27T13:50:55;100748.25;;;16.21;28.56
61014;BME280;46899;47.542;19.082;2023-04-27T13:53:58;100736.38;;;16.80;28.33
61014;BME280;46899;47.542;19.082;2023-04-27T13:57:01;100737.38;;;16.62;27.63
61014;BME280;46899;47.542;19.082;2023-04-27T14:00:05;100735.69;;;16.92;27.65
61014;BME280;46899;47.542;19.082;2023-04-27T14:03:14;100735.69;;;17.07;27.11
61014;BME280;46899;47.542;19.082;2023-04-27T14:06:17;100741.22;;;17.03;27.22
61014;BME280;46899;47.542;19.082;2023-04-27T14:09:20;100740.59;;;16.82;26.81
61014;BME280;46899;47.542;19.082;2023-04-27T14:12:25;100744.34;;;16.94;27.70
61014;BME280;46899;47.542;19.082;2023-04-27T14:15:30;100738.37;;;16.59;27.33
61014;BME280;46899;47.542;19.082;2023-04-27T14:18:34;100736.09;;;16.69;27.05
61014;BME280;46899;47.542;19.082;2023-04-27T14:21:38;100738.31;;;16.43;26.91
61014;BME280;46899;47.542;19.082;2023-04-27T14:24:40;100745.72;;;16.85;27.42
61014;BME280;46899;47.542;19.082;2023-04-27T14:27:43;100752.75;;;17.00;27.05
61014;BME280;46899;47.542;19.082;2023-04-27T14:30:45;100753.94;;;16.95;26.83
61014;BME280;46899;47.542;19.082;2023-04-27T14:33:48;100754.59;;;16.83;27.30
61014;BME280;46899;47.542;19.082;2023-04-27T14:36:50;100754.47;;;16.53;27.53
61014;BME280;46899;47.542;19.082;2023-04-27T14:39:53;100764.00;;;16.04;27.89
61014;BME280;46899;47.542;19.082;2023-04-27T14:42:56;100755.87;;;16.09;28.02
61014;BME280;46899;47.542;19.082;2023-04-27T14:45:59;100755.06;;;15.91;27.89
61014;BME280;46899;47.542;19.082;2023-04-27T14:49:21;100756.97;;;16.05;28.26
61014;BME280;46899;47.542;19.082;2023-04-27T14:52:24;100753.09;;;16.12;28.85
61014;BME280;46899;47.542;19.082;2023-04-27T14:55:26;100758.22;;;16.15;28.22
61014;BME280;46899;47.542;19.082;2023-04-27T14:58:29;100749.94;;;15.88;28.65
61014;BME280;46899;47.542;19.082;2023-04-27T15:01:33;100751.81;;;15.86;28.44
61014;BME280;46899;47.542;19.082;2023-04-27T15:04:36;100760.91;;;15.79;28.96
61014;BME280;46899;47.542;19.082;2023-04-27T15:07:40;100762.63;;;15.80;28.86
61014;BME280;46899;47.542;19.082;2023-04-27T15:10:43;100758.25;;;15.62;29.18
61014;BME280;46899;47.542;19.082;2023-04-27T15:13:46;100752.88;;;15.65;29.19
61014;BME280;46899;47.542;19.082;2023-04-27T15:16:49;100758.09;;;15.48;29.62
61014;BME280;46899;47.542;19.082;2023-04-27T15:19:51;100761.44;;;15.33;29.40
61014;BME280;46899;47.542;19.082;2023-04-27T15:22:54;100759.84;;;15.29;29.43
61014;BME280;46899;47.542;19.082;2023-04-27T15:25:56;100757.84;;;15.17;29.46
61014;BME280;46899;47.542;19.082;2023-04-27T15:28:59;100757.00;;;15.16;30.01
61014;BME280;46899;47.542;19.082;2023-04-27T15:32:02;100756.75;;;15.39;29.98
61014;BME280;46899;47.542;19.082;2023-04-27T15:35:05;100766.94;;;15.45;30.10
61014;BME280;46899;47.542;19.082;2023-04-27T15:38:09;100757.31;;;15.27;30.37
61014;BME280;46899;47.542;19.082;2023-04-27T15:41:11;100762.59;;;15.08;29.83
61014;BME280;46899;47.542;19.082;2023-04-27T15:44:14;100756.16;;;14.97;30.49
61014;BME280;46899;47.542;19.082;2023-04-27T15:47:17;100754.81;;;14.88;30.33
61014;BME280;46899;47.542;19.082;2023-04-27T15:50:19;100759.19;;;14.69;30.81
61014;BME280;46899;47.542;19.082;2023-04-27T15:53:22;100757.59;;;14.65;30.72
61014;BME280;46899;47.542;19.082;2023-04-27T15:56:24;100757.91;;;14.59;31.25
61014;BME280;46899;47.542;19.082;2023-04-27T15:59:32;100764.69;;;14.63;31.33
61014;BME280;46899;47.542;19.082;2023-04-27T16:02:34;100757.31;;;14.53;30.80